Time;durP1;ratioP1;P1;durP2;ratioP2;P2;SDS_P1;SDS_P2;PMS_P1;PMS_P2;Temp;Humidity;BMP_temperature;BMP_pressure;BME280_temperature;BME280_humidity;BME280_pressure;Samples;Min_cycle;Max_cycle;Signal;HPM_P1;HPM_P2
2023/07/22 00:01:32;;;;;;;22.83;10.85;;;;;;;-146.27;91.43;82372.13;5070393;28;20027;-73
2023/07/22 00:03:58;;;;;;;24.85;10.93;;;;;;;-146.27;92.53;82370.13;5070734;28;20032;-73
2023/07/22 00:06:24;;;;;;;24.08;11.00;;;;;;;-146.27;91.47;82392.22;5070684;28;20021;-73
2023/07/22 00:08:49;;;;;;;23.60;10.40;;;;;;;-146.27;91.53;82394.22;5070566;28;20046;-73
2023/07/22 00:11:15;;;;;;;20.73;10.82;;;;;;;-146.27;91.71;82396.25;5069748;28;20356;-73
2023/07/22 00:13:40;;;;;;;21.98;10.93;;;;;;;-146.27;92.44;82408.28;5070373;28;20433;-73
2023/07/22 00:16:07;;;;;;;21.73;10.38;;;;;;;-146.27;92.48;82400.25;5070075;28;20468;-74
2023/07/22 00:18:33;;;;;;;23.95;11.13;;;;;;;-146.27;92.36;82438.44;5069906;28;20448;-74
2023/07/22 00:20:59;;;;;;;26.98;11.95;;;;;;;-146.27;92.64;82410.31;5069033;28;20108;-74
2023/07/22 00:23:25;;;;;;;22.02;11.32;;;;;;;-146.27;93.10;82408.28;5070408;28;20024;-74
2023/07/22 00:25:51;;;;;;;21.60;10.13;;;;;;;-146.27;93.17;82388.22;5070071;28;20024;-74
2023/07/22 00:28:18;;;;;;;21.33;10.38;;;;;;;-146.27;92.46;82416.31;5070188;28;20040;-74
2023/07/22 00:30:43;;;;;;;19.98;10.52;;;;;;;-146.27;92.25;82428.38;5069953;28;20070;-74
2023/07/22 00:33:09;;;;;;;19.13;10.60;;;;;;;-146.27;92.38;82490.66;5069857;28;20028;-73
2023/07/22 00:35:35;;;;;;;21.45;10.70;;;;;;;-146.27;93.06;82404.28;5069729;28;20051;-73
2023/07/22 00:38:01;;;;;;;19.60;10.35;;;;;;;-146.27;92.85;82448.47;5070039;28;20420;-73
2023/07/22 00:40:27;;;;;;;18.05;9.18;;;;;;;-146.27;92.92;82424.38;5070051;28;20032;-73
2023/07/22 00:42:53;;;;;;;21.38;10.55;;;;;;;-146.27;92.71;82504.72;5070094;28;20507;-74
2023/07/22 00:45:18;;;;;;;19.13;9.20;;;;;;;-146.27;92.48;82412.31;5069969;28;20119;-73
2023/07/22 00:47:45;;;;;;;15.18;9.05;;;;;;;-146.27;92.25;82458.50;5069576;28;20025;-73
2023/07/22 00:50:10;;;;;;;18.15;9.52;;;;;;;-146.27;92.40;82484.63;5069892;28;20024;-74
2023/07/22 00:52:37;;;;;;;18.23;9.65;;;;;;;-146.27;92.76;82456.50;5069762;28;20085;-74
2023/07/22 00:55:04;;;;;;;16.90;9.63;;;;;;;-146.27;92.87;82468.56;5069655;28;20024;-74
2023/07/22 00:57:30;;;;;;;16.90;8.82;;;;;;;-146.27;93.04;82522.78;5061656;28;20108;-74
2023/07/22 00:59:55;;;;;;;13.73;8.23;;;;;;;-146.27;93.12;82500.69;5069901;28;20158;-74
2023/07/22 01:02:23;;;;;;;19.42;9.23;;;;;;;-146.27;94.00;82526.81;5069642;28;20111;-74
2023/07/22 01:04:49;;;;;;;14.93;8.75;;;;;;;-146.27;93.30;82464.53;5069453;28;20035;-74
2023/07/22 01:07:15;;;;;;;21.38;9.20;;;;;;;-146.27;92.94;82492.66;5069110;28;20103;-74
2023/07/22 01:09:42;;;;;;;19.55;8.40;;;;;;;-146.27;93.17;82516.78;5069595;28;20027;-74
2023/07/22 01:12:09;;;;;;;16.55;8.30;;;;;;;-146.27;93.68;82520.78;5069611;28;20044;-74
2023/07/22 01:14:36;;;;;;;13.98;8.68;;;;;;;-146.27;92.86;82520.78;5069510;28;20032;-74
2023/07/22 01:17:03;;;;;;;14.02;8.35;;;;;;;-146.27;93.20;82524.81;5069503;28;20078;-74
2023/07/22 01:19:30;;;;;;;18.20;8.85;;;;;;;-146.27;92.94;82504.72;5068066;28;20035;-74
2023/07/22 01:21:57;;;;;;;14.98;8.07;;;;;;;-146.27;92.52;82500.69;5068275;28;20033;-73
2023/07/22 01:24:23;;;;;;;14.30;7.55;;;;;;;-146.27;92.44;82502.72;5069462;28;20031;-74
2023/07/22 01:26:50;;;;;;;15.82;7.47;;;;;;;-146.27;91.76;82502.72;5069578;28;20098;-74
2023/07/22 01:29:16;;;;;;;17.67;8.23;;;;;;;-146.27;92.28;82480.59;5071657;28;20032;-74
2023/07/22 01:31:41;;;;;;;17.48;9.75;;;;;;;-146.27;92.19;82484.63;5073137;28;20028;-73
2023/07/22 01:34:06;;;;;;;13.70;8.55;;;;;;;-146.27;92.30;82484.63;5073377;28;20476;-74
2023/07/22 01:36:32;;;;;;;14.15;8.00;;;;;;;-146.27;93.05;82500.69;5071857;28;20050;-74
2023/07/22 01:38:57;;;;;;;15.20;7.95;;;;;;;-146.27;92.85;82484.63;5072830;28;20020;-74
2023/07/22 01:41:23;;;;;;;11.98;7.57;;;;;;;-146.27;92.55;82542.88;5072871;28;20548;-74
2023/07/22 01:43:48;;;;;;;11.85;7.90;;;;;;;-146.27;93.25;82540.88;5073537;28;20115;-74
2023/07/22 01:46:14;;;;;;;12.10;7.05;;;;;;;-146.27;93.11;82532.84;5073515;28;20078;-74
2023/07/22 01:48:39;;;;;;;11.75;6.93;;;;;;;-146.27;93.38;82538.88;5073151;28;20047;-74
2023/07/22 01:51:05;;;;;;;15.45;6.85;;;;;;;-146.27;93.41;82528.81;5072993;28;20082;-75
2023/07/22 01:53:30;;;;;;;12.40;7.10;;;;;;;-146.27;92.95;82542.88;5072795;28;20029;-74
2023/07/22 01:55:56;;;;;;;13.73;6.95;;;;;;;-146.27;92.89;82564.97;5072889;28;20479;-74
2023/07/22 01:58:21;;;;;;;16.42;7.40;;;;;;;-146.27;92.84;82577.03;5072732;28;20048;-74
2023/07/22 02:00:50;;;;;;;14.32;6.97;;;;;;;-146.27;93.44;82544.91;5072845;28;20127;-74
2023/07/22 02:03:15;;;;;;;10.80;6.82;;;;;;;-146.27;92.88;82496.69;5072969;28;20048;-74
2023/07/22 02:05:41;;;;;;;13.80;6.60;;;;;;;-146.27;93.81;82573.00;5072764;28;20107;-74
2023/07/22 02:08:07;;;;;;;14.00;7.47;;;;;;;-146.27;93.68;82504.72;5072723;28;20020;-74
2023/07/22 02:10:33;;;;;;;12.45;6.55;;;;;;;-146.27;92.75;82581.06;5071143;28;20028;-74
2023/07/22 02:12:58;;;;;;;12.48;6.30;;;;;;;-146.27;92.76;82540.88;5072477;28;20040;-74
2023/07/22 02:15:24;;;;;;;11.85;6.50;;;;;;;-146.27;92.62;82534.84;5072280;28;20032;-74
2023/07/22 02:17:50;;;;;;;12.55;6.40;;;;;;;-146.27;92.29;82595.13;5071500;28;20016;-73
2023/07/22 02:20:15;;;;;;;13.43;6.70;;;;;;;-146.27;93.38;82573.00;5072847;28;20036;-73
2023/07/22 02:22:41;;;;;;;10.82;6.00;;;;;;;-146.27;92.67;82593.09;5072334;28;20020;-73
2023/07/22 02:25:07;;;;;;;11.95;6.30;;;;;;;-146.27;92.98;82581.06;5072415;28;20078;-73
2023/07/22 02:27:32;;;;;;;8.05;5.63;;;;;;;-146.27;93.31;82625.25;5072262;28;20154;-74
2023/07/22 02:29:58;;;;;;;12.63;6.50;;;;;;;-146.27;92.69;82581.06;5072278;28;20523;-74
2023/07/22 02:32:23;;;;;;;13.77;6.00;;;;;;;-146.27;92.72;82641.31;5072465;28;20024;-74
2023/07/22 02:34:48;;;;;;;13.20;7.65;;;;;;;-146.27;92.89;82603.16;5072185;28;20032;-74
2023/07/22 02:37:14;;;;;;;11.32;7.93;;;;;;;-146.27;92.78;82613.19;5070913;28;20048;-74
2023/07/22 02:39:39;;;;;;;19.60;8.30;;;;;;;-146.27;93.00;82645.34;5071234;28;20021;-74
2023/07/22 02:42:05;;;;;;;11.05;6.82;;;;;;;-146.27;93.31;82631.28;5072045;28;20090;-74
2023/07/22 02:44:30;;;;;;;7.97;5.78;;;;;;;-146.27;93.37;82597.13;5071744;28;20047;-74
2023/07/22 02:46:55;;;;;;;12.38;6.55;;;;;;;-146.27;92.67;82585.06;5071823;28;20025;-74
2023/07/22 02:49:21;;;;;;;9.95;5.63;;;;;;;-146.27;93.62;82593.09;5071889;28;20388;-73
2023/07/22 02:51:46;;;;;;;8.02;4.70;;;;;;;-146.27;92.85;82589.09;5072113;28;20024;-74
2023/07/22 02:54:12;;;;;;;11.82;5.82;;;;;;;-146.27;93.40;82579.03;5071823;28;20020;-74
2023/07/22 02:56:37;;;;;;;9.55;5.22;;;;;;;-146.27;93.34;82585.06;5071756;28;20039;-74
2023/07/22 02:59:03;;;;;;;9.60;5.57;;;;;;;-146.27;93.00;82564.97;5072001;28;20032;-73
2023/07/22 03:01:29;;;;;;;8.88;5.40;;;;;;;-146.27;92.77;82687.53;5071572;28;20020;-74
2023/07/22 03:03:54;;;;;;;7.90;5.53;;;;;;;-146.27;93.37;82613.19;5071582;28;20112;-73
2023/07/22 03:06:20;;;;;;;12.20;6.72;;;;;;;-146.27;93.84;82585.06;5071983;28;20107;-74
2023/07/22 03:08:45;;;;;;;13.05;6.07;;;;;;;-146.27;93.68;82593.09;5071659;28;20023;-74
2023/07/22 03:11:10;;;;;;;10.05;5.65;;;;;;;-146.27;94.04;82625.25;5071349;28;20025;-74
2023/07/22 03:13:36;;;;;;;8.43;4.80;;;;;;;-146.27;93.93;82560.97;5071214;28;20047;-73
2023/07/22 03:16:04;;;;;;;10.40;4.72;;;;;;;-146.27;93.35;82613.19;5071252;28;20047;-74
2023/07/22 03:18:30;;;;;;;8.27;4.85;;;;;;;-146.27;93.22;82577.03;5071553;28;20089;-75
2023/07/22 03:20:57;;;;;;;10.55;5.20;;;;;;;-146.27;92.90;82593.09;5071497;28;20529;-74
2023/07/22 03:23:22;;;;;;;8.65;5.40;;;;;;;-146.27;93.28;82609.19;5071714;28;20116;-74
2023/07/22 03:25:48;;;;;;;10.43;5.30;;;;;;;-146.27;92.32;82601.16;5071257;28;20532;-74
2023/07/22 03:28:13;;;;;;;7.65;4.78;;;;;;;-146.27;92.15;82558.97;5071075;28;20032;-74
2023/07/22 03:30:38;;;;;;;7.22;4.60;;;;;;;-146.27;92.70;82601.16;5071250;28;20028;-74
2023/07/22 03:33:05;;;;;;;12.35;5.43;;;;;;;-146.27;92.49;82591.09;5070785;28;20085;-74
2023/07/22 03:35:32;;;;;;;8.70;5.10;;;;;;;-146.27;92.83;82617.22;5071303;28;20070;-74
2023/07/22 03:37:58;;;;;;;8.13;4.65;;;;;;;-146.27;92.98;82593.09;5071128;28;20055;-74
2023/07/22 03:40:28;;;;;;;7.20;4.50;;;;;;;-146.27;93.22;82625.25;5070932;28;20024;-74
2023/07/22 03:42:54;;;;;;;6.82;3.92;;;;;;;-146.27;94.09;82619.22;5070831;28;20029;-74
2023/07/22 03:45:21;;;;;;;8.15;4.25;;;;;;;-146.27;93.93;82597.13;5070604;28;20036;-74
2023/07/22 03:47:51;;;;;;;8.02;5.03;;;;;;;-146.27;94.11;82577.03;5070839;28;20032;-73
2023/07/22 03:50:16;;;;;;;7.13;4.07;;;;;;;-146.27;93.72;82597.13;5070670;28;20029;-74
2023/07/22 03:52:41;;;;;;;8.80;4.30;;;;;;;-146.27;93.76;82577.03;5070421;28;20074;-73
2023/07/22 03:55:07;;;;;;;8.10;4.25;;;;;;;-146.27;91.33;82577.03;5070856;28;20028;-74
2023/07/22 03:57:33;;;;;;;9.98;3.90;;;;;;;-146.27;91.37;82569.00;5070531;28;20029;-74
2023/07/22 03:59:58;;;;;;;8.35;3.97;;;;;;;-146.27;92.17;82589.09;5070673;28;20036;-74
2023/07/22 04:02:24;;;;;;;8.25;4.07;;;;;;;-146.27;91.66;82569.00;5070603;28;20022;-74
2023/07/22 04:04:51;;;;;;;7.25;4.10;;;;;;;-146.27;91.39;82552.94;5070119;28;20392;-74
2023/07/22 04:07:16;;;;;;;4.70;3.50;;;;;;;-146.27;91.07;82548.91;5070284;28;20032;-73
2023/07/22 04:09:42;;;;;;;6.97;4.25;;;;;;;-146.27;91.48;82492.66;5069755;28;20032;-74
2023/07/22 04:12:08;;;;;;;8.60;3.85;;;;;;;-146.27;90.78;82532.84;5069985;28;20036;-74
2023/07/22 04:14:33;;;;;;;4.97;3.58;;;;;;;-146.27;90.69;82564.97;5069862;28;20033;-74
2023/07/22 04:16:59;;;;;;;5.40;3.15;;;;;;;-146.27;91.09;82528.81;5070156;28;20100;-74
2023/07/22 04:19:24;;;;;;;5.55;3.55;;;;;;;-146.27;91.07;82526.81;5070103;28;20055;-74
2023/07/22 04:21:50;;;;;;;6.55;3.83;;;;;;;-146.27;91.29;82496.69;5070076;28;20033;-74
2023/07/22 04:24:15;;;;;;;9.68;3.97;;;;;;;-146.27;91.92;82472.56;5069677;28;20504;-73
2023/07/22 04:26:43;;;;;;;6.88;3.85;;;;;;;-146.27;91.70;82536.84;5069818;28;20590;-74
2023/07/22 04:29:09;;;;;;;7.70;4.25;;;;;;;-146.27;90.70;82474.59;5069690;28;20040;-74
2023/07/22 04:31:34;;;;;;;7.93;4.65;;;;;;;-146.27;90.76;82476.59;5070024;28;20044;-74
2023/07/22 04:34:00;;;;;;;6.35;4.43;;;;;;;-146.27;90.91;82408.28;5070100;28;20052;-74
2023/07/22 04:36:25;;;;;;;6.97;4.97;;;;;;;-146.27;90.85;82460.53;5069757;28;20043;-74
2023/07/22 04:38:50;;;;;;;9.85;4.70;;;;;;;-146.27;91.67;82450.47;5068357;28;20181;-74
2023/07/22 04:41:16;;;;;;;11.13;5.13;;;;;;;-146.27;91.74;82460.53;5069646;28;20021;-72
2023/07/22 04:43:41;;;;;;;10.30;5.30;;;;;;;-146.27;90.91;82452.47;5069995;28;20028;-74
2023/07/22 04:46:07;;;;;;;10.95;6.13;;;;;;;-146.27;91.15;82444.44;5069691;28;20046;-74
2023/07/22 04:48:32;;;;;;;9.57;5.57;;;;;;;-146.27;91.50;82398.25;5069700;28;20046;-74
2023/07/22 04:50:58;;;;;;;10.95;6.43;;;;;;;-146.27;91.40;82422.34;5069922;28;20036;-74
2023/07/22 04:53:23;;;;;;;15.75;6.85;;;;;;;-146.27;91.53;82400.25;5070592;28;20524;-74
2023/07/22 04:55:49;;;;;;;17.95;7.88;;;;;;;-146.27;91.89;82398.25;5069895;28;20021;-74
2023/07/22 04:58:14;;;;;;;27.88;9.45;;;;;;;-146.27;92.47;82370.13;5069603;28;20392;-74
2023/07/22 05:00:39;;;;;;;19.58;9.00;;;;;;;-146.27;92.59;82424.38;5069449;28;20048;-74
2023/07/22 05:03:05;;;;;;;23.15;9.38;;;;;;;-146.27;92.96;82384.19;5068631;28;20488;-74
2023/07/22 05:05:31;;;;;;;18.58;9.65;;;;;;;-146.27;93.34;82404.28;5073536;28;20536;-74
2023/07/22 05:07:57;;;;;;;19.63;9.20;;;;;;;-146.27;93.41;82396.25;5073979;28;20029;-74
2023/07/22 05:10:22;;;;;;;21.88;10.48;;;;;;;-146.27;93.81;82382.19;5073743;28;20028;-74
2023/07/22 05:12:48;;;;;;;27.70;11.02;;;;;;;-146.27;93.72;82400.25;5073562;28;20048;-73
2023/07/22 05:15:14;;;;;;;23.00;11.32;;;;;;;-146.27;94.54;82406.28;5073685;28;20025;-74
2023/07/22 05:17:39;;;;;;;32.05;12.05;;;;;;;-146.27;94.65;82364.09;5071965;28;20032;-75
2023/07/22 05:20:12;;;;;;;29.13;13.05;;;;;;;-146.27;94.96;82364.09;5073701;28;20019;-74
2023/07/22 05:22:39;;;;;;;32.30;13.02;;;;;;;-146.27;95.31;82329.94;5072218;28;20043;-74
2023/07/22 05:25:06;;;;;;;29.73;13.98;;;;;;;-146.27;96.09;82400.25;5073782;28;20025;-74
2023/07/22 05:27:31;;;;;;;33.03;14.05;;;;;;;-146.27;96.03;82368.13;5073379;28;20036;-74
2023/07/22 05:29:56;;;;;;;27.95;13.82;;;;;;;-146.27;95.92;82337.97;5073393;28;20047;-74
2023/07/22 05:32:23;;;;;;;29.30;13.18;;;;;;;-146.27;95.96;82344.00;5073308;28;20081;-73
2023/07/22 05:34:48;;;;;;;34.08;14.40;;;;;;;-146.27;96.08;82364.09;5073397;28;20456;-74
2023/07/22 05:37:14;;;;;;;31.10;14.35;;;;;;;-146.27;95.85;82319.91;5073320;28;20051;-74
2023/07/22 05:39:39;;;;;;;30.13;14.18;;;;;;;-146.27;96.04;82305.84;5073144;28;20020;-74
2023/07/22 05:42:05;;;;;;;33.00;14.50;;;;;;;-146.27;95.88;82263.66;5073153;28;20052;-74
2023/07/22 05:44:30;;;;;;;32.05;14.20;;;;;;;-146.27;96.69;82327.94;5073288;28;20442;-73
2023/07/22 05:46:55;;;;;;;30.83;14.57;;;;;;;-146.27;96.06;82275.72;5073338;28;20535;-74
2023/07/22 05:49:21;;;;;;;35.80;16.25;;;;;;;-146.27;95.84;82333.97;5073105;28;20029;-74
2023/07/22 05:51:46;;;;;;;32.72;15.35;;;;;;;-146.27;95.88;82231.53;5072996;28;20028;-74
2023/07/22 05:54:12;;;;;;;39.65;15.88;;;;;;;-146.27;95.77;82243.56;5072389;28;20029;-74
2023/07/22 05:56:37;;;;;;;32.42;14.10;;;;;;;-146.27;96.13;82265.66;5072787;28;20032;-74
2023/07/22 05:59:02;;;;;;;28.65;15.20;;;;;;;-146.27;96.17;82255.63;5071540;28;20025;-74
2023/07/22 06:01:28;;;;;;;36.33;15.57;;;;;;;-146.27;96.06;82235.53;5072905;28;20032;-74
2023/07/22 06:03:53;;;;;;;38.22;14.20;;;;;;;-146.27;96.06;82237.53;5071743;28;20089;-74
2023/07/22 06:06:19;;;;;;;35.25;16.15;;;;;;;-146.27;96.22;82239.56;5072472;28;20427;-74
2023/07/22 06:08:44;;;;;;;30.00;15.25;;;;;;;-146.27;96.00;82215.44;5072619;28;20392;-74
2023/07/22 06:11:09;;;;;;;38.38;15.20;;;;;;;-146.27;95.75;82219.47;5072702;28;20388;-74
2023/07/22 06:13:35;;;;;;;35.85;14.40;;;;;;;-146.27;96.01;82179.28;5071079;28;20079;-74
2023/07/22 06:16:00;;;;;;;27.92;13.60;;;;;;;-146.27;95.79;82207.41;5072215;28;20024;-74
2023/07/22 06:18:26;;;;;;;31.98;13.60;;;;;;;-146.27;95.63;82175.28;5072599;28;20556;-74
2023/07/22 06:20:51;;;;;;;35.53;14.90;;;;;;;-146.27;95.33;82185.31;5072335;28;20032;-74
2023/07/22 06:23:17;;;;;;;30.02;14.77;;;;;;;-146.27;95.38;82155.19;5072271;28;20031;-74
2023/07/22 06:25:42;;;;;;;33.45;13.68;;;;;;;-146.27;95.82;82209.44;5072319;28;20451;-73
2023/07/22 06:28:08;;;;;;;30.00;13.60;;;;;;;-146.27;95.40;82155.19;5072378;28;20038;-74
2023/07/22 06:30:33;;;;;;;32.00;14.40;;;;;;;-146.27;95.46;82183.31;5071943;28;20025;-74
2023/07/22 06:32:59;;;;;;;31.67;13.48;;;;;;;-146.27;95.85;82169.25;5072017;28;20406;-74
2023/07/22 06:35:24;;;;;;;32.03;12.98;;;;;;;-146.27;95.64;82159.22;5070893;28;20024;-74
2023/07/22 06:37:50;;;;;;;29.08;14.45;;;;;;;-146.27;95.28;82121.03;5072038;28;20082;-74
2023/07/22 06:40:15;;;;;;;29.25;13.10;;;;;;;-146.27;95.06;82119.03;5071317;28;20024;-75
2023/07/22 06:42:40;;;;;;;32.15;12.45;;;;;;;-146.27;94.64;82127.06;5072405;28;20447;-74
2023/07/22 06:45:06;;;;;;;26.13;12.88;;;;;;;-146.27;94.84;82058.78;5072080;28;20024;-74
2023/07/22 06:47:32;;;;;;;27.42;13.10;;;;;;;-146.27;94.53;82056.75;5071962;28;20439;-74
2023/07/22 06:49:57;;;;;;;29.27;14.15;;;;;;;-146.27;94.67;82070.81;5071859;28;20028;-73
2023/07/22 06:52:23;;;;;;;31.30;13.15;;;;;;;-146.27;94.27;82044.72;5071873;28;20067;-73
2023/07/22 06:54:48;;;;;;;26.33;12.85;;;;;;;-146.27;93.91;82060.78;5071971;28;20393;-73
2023/07/22 06:57:15;;;;;;;27.02;12.05;;;;;;;-146.27;94.11;82066.81;5071723;28;20016;-74
2023/07/22 06:59:40;;;;;;;28.73;12.15;;;;;;;-146.27;94.10;82026.63;5070734;28;20539;-74
2023/07/22 07:02:06;;;;;;;25.17;12.82;;;;;;;-146.27;94.16;82076.84;5071710;28;20103;-74
2023/07/22 07:04:31;;;;;;;30.58;12.00;;;;;;;-146.27;93.89;82062.78;5071573;28;20396;-74
2023/07/22 07:06:57;;;;;;;32.15;13.23;;;;;;;-146.27;94.09;82022.63;5071571;28;20024;-74
2023/07/22 07:09:22;;;;;;;28.80;12.00;;;;;;;-146.27;93.91;82016.59;5071358;28;20438;-74
2023/07/22 07:11:47;;;;;;;23.88;11.50;;;;;;;-146.27;93.89;82000.53;5071116;28;20449;-74
2023/07/22 07:14:13;;;;;;;26.90;12.18;;;;;;;-146.27;93.86;82074.84;5071424;28;20511;-74
2023/07/22 07:16:38;;;;;;;21.80;11.10;;;;;;;-146.27;93.54;82016.59;5070291;28;20077;-73
2023/07/22 07:19:04;;;;;;;23.40;11.43;;;;;;;-146.27;92.74;81994.50;5071723;28;20115;-74
2023/07/22 07:21:29;;;;;;;25.38;10.10;;;;;;;-146.27;92.47;82058.78;5071055;28;20446;-74
2023/07/22 07:23:55;;;;;;;25.40;11.68;;;;;;;-146.27;93.16;81978.44;5070301;28;20048;-73
2023/07/22 07:26:21;;;;;;;26.45;11.38;;;;;;;-146.27;92.53;82006.53;5070270;28;20393;-73
2023/07/22 07:28:49;;;;;;;23.70;11.05;;;;;;;-146.27;92.67;81988.47;5071139;28;20029;-73
2023/07/22 07:31:15;;;;;;;21.60;10.80;;;;;;;-146.27;92.73;81986.47;5070761;28;20047;-73
2023/07/22 07:33:40;;;;;;;23.55;10.30;;;;;;;-146.27;92.44;81978.44;5070802;28;20028;-73
2023/07/22 07:36:06;;;;;;;25.95;10.43;;;;;;;-146.27;92.24;81974.41;5068875;28;20077;-74
2023/07/22 07:38:32;;;;;;;25.27;10.23;;;;;;;-146.27;91.52;81966.38;5069517;28;20111;-75
2023/07/22 07:41:08;;;;;;;23.40;9.25;;;;;;;-146.27;91.06;81922.19;5071141;28;20032;-73
2023/07/22 07:43:34;;;;;;;17.55;8.75;;;;;;;-146.27;90.60;81938.25;5071162;28;20047;-74
2023/07/22 07:46:17;;;;;;;24.67;8.10;;;;;;;-146.27;88.88;81970.41;5070937;28;20036;-75
2023/07/22 07:48:44;;;;;;;17.83;7.25;;;;;;;-146.27;88.91;81980.44;5071183;28;20032;-74
2023/07/22 07:51:11;;;;;;;16.70;7.93;;;;;;;-146.27;88.94;81886.03;5070940;28;20023;-74
2023/07/22 07:53:37;;;;;;;18.08;8.27;;;;;;;-146.27;88.84;81926.22;5070845;28;20063;-74
2023/07/22 07:56:02;;;;;;;21.50;8.27;;;;;;;-146.27;88.85;81930.22;5070339;28;20041;-75
2023/07/22 07:58:28;;;;;;;19.02;7.75;;;;;;;-146.27;87.84;81966.38;5070416;28;20063;-74
2023/07/22 08:00:53;;;;;;;16.40;7.43;;;;;;;-146.27;87.67;81906.13;5070686;28;20035;-74
2023/07/22 08:03:18;;;;;;;17.77;6.75;;;;;;;-146.27;87.59;81857.91;5069244;28;20123;-74
2023/07/22 08:05:44;;;;;;;15.82;7.60;;;;;;;-146.27;87.32;81833.81;5070863;28;20025;-74
2023/07/22 08:08:10;;;;;;;18.13;7.82;;;;;;;-146.27;87.09;81898.09;5070813;28;20020;-75
2023/07/22 08:10:35;;;;;;;18.13;7.95;;;;;;;-146.27;86.48;81853.91;5068973;28;20019;-74
2023/07/22 08:13:01;;;;;;;13.52;6.85;;;;;;;-146.27;85.32;81916.16;5070287;28;20040;-74
2023/07/22 08:15:28;;;;;;;15.88;7.15;;;;;;;-146.27;85.51;81902.09;5070473;28;20024;-74
2023/07/22 08:17:53;;;;;;;19.08;7.38;;;;;;;-146.27;86.08;81853.91;5070415;28;20028;-74
2023/07/22 08:20:19;;;;;;;16.02;7.90;;;;;;;-146.27;86.36;81956.34;5070098;28;20086;-74
2023/07/22 08:22:46;;;;;;;22.08;7.65;;;;;;;-146.27;86.24;81894.06;5069997;28;20476;-74
2023/07/22 08:25:14;;;;;;;15.32;7.22;;;;;;;-146.27;85.90;81878.00;5070180;28;20543;-74
2023/07/22 08:27:40;;;;;;;15.52;7.05;;;;;;;-146.27;85.76;81863.94;5070292;28;20040;-75
2023/07/22 08:30:06;;;;;;;17.33;6.72;;;;;;;-146.27;85.05;81809.72;5070346;28;20024;-74
2023/07/22 08:32:31;;;;;;;15.27;6.72;;;;;;;-146.27;84.83;81837.81;5070077;28;20025;-74
2023/07/22 08:34:57;;;;;;;20.05;7.13;;;;;;;-146.27;85.12;81861.94;5068576;28;20074;-75
2023/07/22 08:37:22;;;;;;;9.50;5.20;;;;;;;-146.27;84.00;81890.06;5068313;28;20065;-75
2023/07/22 08:39:47;;;;;;;7.97;5.00;;;;;;;-146.27;83.63;81922.19;5069502;28;20068;-75
2023/07/22 08:42:18;;;;;;;9.93;4.68;;;;;;;-146.27;83.01;81884.03;5069604;28;20085;-74
2023/07/22 08:44:48;;;;;;;9.73;4.18;;;;;;;-146.27;82.69;81974.41;5069505;28;20086;-75
2023/07/22 08:47:16;;;;;;;13.00;4.35;;;;;;;-146.27;82.25;81876.00;5069156;28;20028;-75
2023/07/22 08:49:50;;;;;;;10.00;4.30;;;;;;;-146.27;81.68;81878.00;5068040;28;20036;-75
2023/07/22 08:52:17;;;;;;;7.30;3.45;;;;;;;-146.27;80.94;81861.94;5069592;28;20029;-75
2023/07/22 08:54:44;;;;;;;5.35;2.97;;;;;;;-146.27;80.12;81825.78;5069209;28;20107;-74
2023/07/22 08:57:11;;;;;;;6.22;3.00;;;;;;;-146.27;79.11;81819.75;5067576;28;20036;-75
2023/07/22 08:59:37;;;;;;;8.52;3.05;;;;;;;-146.27;79.23;81781.59;5067761;28;20028;-75
2023/07/22 09:02:03;;;;;;;7.47;2.63;;;;;;;-146.27;78.75;81757.50;5069239;28;20099;-74
2023/07/22 09:04:29;;;;;;;7.88;3.00;;;;;;;-146.27;78.00;81753.47;5068003;28;20456;-75
2023/07/22 09:06:56;;;;;;;7.05;2.67;;;;;;;-146.27;75.54;81781.59;5069717;28;20503;-75
2023/07/22 09:09:22;;;;;;;4.78;2.72;;;;;;;-146.27;75.02;81707.28;5069669;28;20053;-75
2023/07/22 09:11:48;;;;;;;5.50;2.55;;;;;;;-146.27;73.99;81749.47;5069527;28;20038;-74
2023/07/22 09:14:15;;;;;;;12.20;3.13;;;;;;;-146.27;73.99;81697.22;5069299;28;20025;-75
2023/07/22 09:16:41;;;;;;;4.88;2.72;;;;;;;-146.27;72.78;81681.16;5069765;28;20028;-75
2023/07/22 09:19:06;;;;;;;3.55;2.25;;;;;;;-146.27;71.91;81622.91;5069535;28;20020;-74
2023/07/22 09:21:36;;;;;;;9.00;2.53;;;;;;;-146.27;71.45;81588.78;5069474;28;20483;-74
2023/07/22 09:24:23;;;;;;;6.63;2.20;;;;;;;-146.27;70.19;81538.56;5067539;28;20040;-75
2023/07/22 09:26:49;;;;;;;6.13;2.40;;;;;;;-146.27;70.61;81496.41;5069631;28;20041;-75
2023/07/22 09:29:14;;;;;;;8.13;2.65;;;;;;;-146.27;68.95;81548.59;5069750;28;20507;-75
2023/07/22 09:31:51;;;;;;;4.82;2.13;;;;;;;-146.27;69.13;81624.94;5069462;28;20444;-74
2023/07/22 09:34:16;;;;;;;10.02;2.40;;;;;;;-146.27;70.43;81713.31;5069345;28;20036;-74
2023/07/22 09:36:56;;;;;;;7.22;2.28;;;;;;;-146.27;70.87;81685.19;5069206;28;20380;-75
2023/07/22 09:39:22;;;;;;;5.60;2.85;;;;;;;-146.27;71.71;81727.38;5068052;28;20020;-75
2023/07/22 09:41:48;;;;;;;7.20;2.38;;;;;;;-146.27;74.90;81729.38;5067780;28;20025;-74
2023/07/22 09:44:14;;;;;;;6.03;2.70;;;;;;;-146.27;78.71;81831.81;5069457;28;20082;-75
2023/07/22 09:46:40;;;;;;;6.13;2.80;;;;;;;-146.27;80.81;81876.00;5067476;28;20036;-74
2023/07/22 09:49:08;;;;;;;6.38;2.92;;;;;;;-146.27;83.73;81998.50;5069703;28;20020;-74
2023/07/22 09:51:35;;;;;;;6.15;2.83;;;;;;;-146.27;87.43;82052.75;5072788;28;20040;-74
2023/07/22 09:54:02;;;;;;;6.75;3.28;;;;;;;-146.27;89.75;82171.25;5072978;28;20107;-73
2023/07/22 09:56:27;;;;;;;7.20;2.90;;;;;;;-146.27;93.36;82368.13;5073182;28;20031;-73
2023/07/22 09:58:56;;;;;;;5.13;3.35;;;;;;;-146.27;94.75;82360.09;5073006;28;20024;-71
2023/07/22 10:01:25;;;;;;;7.88;3.60;;;;;;;-146.27;95.69;82410.31;5073178;28;20062;-71
2023/07/22 10:03:58;;;;;;;7.50;3.35;;;;;;;-146.27;95.71;82376.16;5072889;28;20055;-72
2023/07/22 10:06:26;;;;;;;;;;;;;;;-146.27;95.98;82380.16;5073416;28;20484;-72
2023/07/22 10:08:52;;;;;;;6.32;3.67;;;;;;;-146.27;96.89;82396.25;5072739;28;19917;-72
2023/07/22 10:11:18;;;;;;;9.50;4.05;;;;;;;-146.27;97.77;82422.34;5071243;28;20024;-72
2023/07/22 10:13:45;;;;;;;9.85;3.70;;;;;;;-146.27;98.18;82410.31;5072654;28;20052;-69
2023/07/22 10:16:12;;;;;;;11.48;4.35;;;;;;;-146.27;98.63;82400.25;5072944;28;20082;-71
2023/07/22 10:18:38;;;;;;;9.52;4.18;;;;;;;-146.27;99.19;82368.13;5072567;28;20033;-71
2023/07/22 10:21:07;;;;;;;6.43;4.10;;;;;;;-146.27;99.10;82388.22;5071325;28;20111;-72
2023/07/22 10:23:33;;;;;;;9.20;4.28;;;;;;;-146.27;99.27;82362.09;5072597;28;20024;-72
2023/07/22 10:25:59;;;;;;;9.80;4.30;;;;;;;-146.27;98.79;82406.28;5072660;28;20021;-72
2023/07/22 10:28:26;;;;;;;8.38;3.75;;;;;;;-146.27;98.19;82360.09;5072532;28;20429;-71
2023/07/22 10:30:52;;;;;;;7.03;3.83;;;;;;;-146.27;97.69;82432.41;5072195;28;20033;-72
2023/07/22 10:33:18;;;;;;;5.32;3.90;;;;;;;-146.27;97.63;82374.13;5072221;28;20472;-74
2023/07/22 10:36:00;;;;;;;6.18;3.22;;;;;;;-146.27;97.75;82354.06;5072741;28;20028;-71
2023/07/22 10:38:26;;;;;;;5.22;3.03;;;;;;;-146.27;97.69;82335.97;5072291;28;20036;-71
2023/07/22 10:40:55;;;;;;;13.77;4.35;;;;;;;-146.27;97.19;82231.53;5071611;28;20032;-72
2023/07/22 10:43:32;;;;;;;8.63;2.92;;;;;;;-146.27;94.99;82191.34;5072267;28;20103;-71
2023/07/22 10:46:04;;;;;;;6.07;2.80;;;;;;;-146.27;94.90;82115.00;5072313;28;20033;-71
2023/07/22 10:48:35;;;;;;;2.90;2.33;;;;;;;-146.27;91.72;82104.97;5072164;28;20032;-71
2023/07/22 10:51:10;;;;;;;7.53;2.38;;;;;;;-146.27;92.10;82006.53;5071897;28;20051;-72
2023/07/22 10:53:44;;;;;;;4.68;2.58;;;;;;;-146.27;89.12;81984.47;5071944;28;20054;-72
2023/07/22 10:56:13;;;;;;;4.32;1.98;;;;;;;-146.27;86.77;81962.34;5070453;28;20121;-73
2023/07/22 10:58:44;;;;;;;3.22;1.77;;;;;;;-146.27;85.02;81906.13;5072021;28;20052;-71
2023/07/22 11:01:28;;;;;;;4.22;1.90;;;;;;;-146.27;85.51;81857.91;5068351;28;20471;-72
2023/07/22 11:04:13;;;;;;;;;;;;;;;-146.27;85.65;81801.69;5070247;28;20512;-73
2023/07/22 11:06:59;;;;;;;5.43;1.77;;;;;;;-146.27;83.96;81777.56;5069946;28;19912;-72